createdAt,value
2022-09-30T00:02:56.734Z,9.76
2022-09-30T00:07:58.514Z,9.67
2022-09-30T00:13:00.236Z,9.48
2022-09-30T00:18:01.895Z,9.37
2022-09-30T00:23:04.281Z,9.45
2022-09-30T00:28:07.976Z,9.58
2022-09-30T00:33:10.104Z,9.51
2022-09-30T00:38:11.879Z,9.58
2022-09-30T00:43:15.558Z,9.69
2022-09-30T00:48:38.911Z,9.76
2022-09-30T00:54:03.185Z,9.69
2022-09-30T00:59:10.405Z,9.71
2022-09-30T01:04:20.662Z,9.79
2022-09-30T01:09:22.488Z,9.82
2022-09-30T01:14:27.611Z,9.82
2022-09-30T01:19:44.106Z,9.79
2022-09-30T01:25:19.069Z,9.77
2022-09-30T01:30:36.285Z,9.74
2022-09-30T01:35:51.509Z,9.67
2022-09-30T01:41:11.501Z,9.57
2022-09-30T01:46:44.460Z,9.50
2022-09-30T01:52:05.658Z,9.47
2022-09-30T01:57:41.845Z,9.43
2022-09-30T02:02:49.135Z,9.35
2022-09-30T02:08:10.114Z,9.27
2022-09-30T02:13:17.971Z,9.37
2022-09-30T02:18:35.459Z,9.29
2022-09-30T02:23:42.510Z,9.18
2022-09-30T02:28:59.211Z,9.32
2022-09-30T02:34:07.504Z,9.35
2022-09-30T02:39:22.637Z,9.21
2022-09-30T02:44:24.917Z,9.19
2022-09-30T02:49:33.630Z,9.25
2022-09-30T02:54:49.890Z,9.39
2022-09-30T02:59:53.070Z,9.42
2022-09-30T03:04:54.727Z,9.45
2022-09-30T03:09:59.750Z,9.52
2022-09-30T03:15:13.007Z,9.58
2022-09-30T03:20:34.906Z,9.47
2022-09-30T03:26:04.867Z,9.50
2022-09-30T03:31:12.983Z,9.55
2022-09-30T03:36:32.095Z,9.62
2022-09-30T03:41:47.881Z,9.64
2022-09-30T03:46:54.319Z,9.65
2022-09-30T03:51:58.889Z,9.66
2022-09-30T03:57:05.125Z,9.64
2022-09-30T04:02:10.421Z,9.65
2022-09-30T04:07:12.670Z,9.56
2022-09-30T04:12:14.489Z,9.64
2022-09-30T04:17:16.381Z,9.70
2022-09-30T04:22:18.111Z,9.70
2022-09-30T04:27:19.835Z,9.71
2022-09-30T04:32:22.866Z,9.68
2022-09-30T04:37:25.743Z,9.65
2022-09-30T04:42:27.414Z,9.66
2022-09-30T04:47:30.114Z,9.65
2022-09-30T04:52:31.857Z,9.62
2022-09-30T04:57:33.582Z,9.59
2022-09-30T05:02:35.665Z,9.56
2022-09-30T05:07:37.732Z,9.53
2022-09-30T05:12:42.714Z,9.49
2022-09-30T05:17:44.519Z,9.40
2022-09-30T05:22:46.679Z,9.32
2022-09-30T05:27:49.931Z,9.15
2022-09-30T05:32:51.569Z,9.38
2022-09-30T05:37:53.526Z,9.63
2022-09-30T05:42:57.509Z,9.35
2022-09-30T05:48:00.148Z,9.35
2022-09-30T05:53:01.836Z,9.38
2022-09-30T05:58:03.490Z,9.34
2022-09-30T06:03:05.191Z,9.38
2022-09-30T06:08:07.170Z,9.43
2022-09-30T06:13:09.388Z,9.39
2022-09-30T06:18:17.014Z,9.38
2022-09-30T06:23:20.301Z,9.28
2022-09-30T06:28:22.937Z,9.24
2022-09-30T06:33:24.683Z,9.19
2022-09-30T06:38:28.663Z,9.31
2022-09-30T06:43:32.217Z,9.40
2022-09-30T06:48:43.326Z,9.40
2022-09-30T06:53:45.055Z,9.46
2022-09-30T06:58:46.905Z,9.47
2022-09-30T07:03:54.668Z,9.30
2022-09-30T07:08:56.847Z,9.43
2022-09-30T07:13:58.803Z,9.50
2022-09-30T07:19:01.910Z,9.56
2022-09-30T07:24:03.774Z,9.52
2022-09-30T07:29:07.221Z,9.48
2022-09-30T07:34:09.500Z,9.40
2022-09-30T07:39:11.322Z,9.39
2022-09-30T07:44:14.923Z,9.47
2022-09-30T07:49:25.481Z,9.49
2022-09-30T07:54:30.572Z,9.60
2022-09-30T07:59:35.463Z,9.73
2022-09-30T08:04:41.555Z,9.70
2022-09-30T08:09:45.416Z,9.79
2022-09-30T08:14:47.231Z,9.82
2022-09-30T08:19:49.192Z,9.82
2022-09-30T08:24:50.830Z,9.93
2022-09-30T08:29:55.531Z,10.11
2022-09-30T08:34:57.764Z,10.27
2022-09-30T08:39:59.601Z,10.28
2022-09-30T08:45:36.929Z,10.37
2022-09-30T08:51:07.952Z,10.63
2022-09-30T08:56:17.704Z,10.67
2022-09-30T09:01:44.307Z,10.76
2022-09-30T09:07:40.350Z,10.95
2022-09-30T09:12:56.673Z,11.10
2022-09-30T09:18:40.248Z,11.19
2022-09-30T09:23:42.539Z,11.35
2022-09-30T09:29:21.703Z,11.37
2022-09-30T09:34:25.387Z,11.44
2022-09-30T09:39:52.542Z,11.51
2022-09-30T09:45:29.102Z,11.55
2022-09-30T09:51:03.347Z,11.69
2022-09-30T09:56:18.559Z,11.97
2022-09-30T10:01:32.808Z,12.10
2022-09-30T10:06:50.069Z,12.21
2022-09-30T10:12:18.629Z,12.30
2022-09-30T10:17:35.647Z,12.30
2022-09-30T10:22:37.427Z,12.30
2022-09-30T10:27:54.846Z,12.38
2022-09-30T10:32:56.737Z,12.57
2022-09-30T10:38:00.506Z,12.76
2022-09-30T10:43:02.479Z,12.85
2022-09-30T10:48:07.922Z,13.05
2022-09-30T10:53:21.218Z,12.94
2022-09-30T10:58:29.273Z,13.00
2022-09-30T11:03:37.898Z,13.13
2022-09-30T11:08:48.743Z,13.18
2022-09-30T11:14:12.438Z,13.26
2022-09-30T11:19:49.476Z,13.43
2022-09-30T11:24:54.527Z,13.68
2022-09-30T11:30:19.380Z,13.92
2022-09-30T11:35:43.455Z,14.02
2022-09-30T11:40:45.147Z,14.05
2022-09-30T11:46:07.964Z,14.13
2022-09-30T11:51:36.010Z,14.16
2022-09-30T11:56:53.946Z,14.38
2022-09-30T12:02:01.965Z,14.65
2022-09-30T12:07:20.056Z,14.93
2022-09-30T12:12:21.885Z,15.41
2022-09-30T12:17:28.159Z,15.45
2022-09-30T12:22:40.102Z,15.46
2022-09-30T12:28:40.274Z,15.54
2022-09-30T12:34:03.884Z,15.62
2022-09-30T12:39:20.756Z,15.59
2022-09-30T12:44:51.329Z,15.51
2022-09-30T12:49:58.044Z,15.63
2022-09-30T12:55:09.998Z,15.88
2022-09-30T13:00:24.442Z,15.58
2022-09-30T13:05:32.325Z,15.58
2022-09-30T13:10:44.374Z,15.56
2022-09-30T13:15:46.694Z,16.05
2022-09-30T13:21:10.662Z,16.69
2022-09-30T13:26:27.928Z,16.86
2022-09-30T13:31:32.395Z,16.92
2022-09-30T13:36:59.078Z,17.09
2022-09-30T13:42:00.690Z,16.98
2022-09-30T13:47:15.001Z,17.35
2022-09-30T13:52:33.945Z,17.58
2022-09-30T13:57:51.943Z,17.53
2022-09-30T14:03:06.576Z,17.09
2022-09-30T14:08:39.015Z,16.73
2022-09-30T14:13:59.296Z,16.59
2022-09-30T14:19:16.320Z,16.40
2022-09-30T14:24:35.146Z,16.02
2022-09-30T14:29:57.670Z,15.81
2022-09-30T14:35:06.767Z,15.78
2022-09-30T14:40:12.324Z,15.79
2022-09-30T14:45:35.467Z,15.69
2022-09-30T14:50:50.631Z,15.67
2022-09-30T14:55:52.671Z,15.59
2022-09-30T15:01:03.144Z,15.61
2022-09-30T15:06:15.999Z,15.61
2022-09-30T15:11:20.313Z,15.57
2022-09-30T15:16:24.323Z,15.47
2022-09-30T15:21:30.574Z,15.39
2022-09-30T15:26:34.584Z,15.30
2022-09-30T15:31:43.965Z,15.23
2022-09-30T15:36:48.340Z,15.12
2022-09-30T15:41:51.811Z,15.10
2022-09-30T15:47:07.101Z,15.05
2022-09-30T15:52:23.944Z,14.99
2022-09-30T15:57:45.852Z,14.94
2022-09-30T16:02:47.653Z,14.95
2022-09-30T16:07:49.484Z,14.96
2022-09-30T16:17:53.245Z,14.81
2022-09-30T16:22:55.887Z,14.75
2022-09-30T16:28:14.853Z,14.71
2022-09-30T16:33:17.304Z,14.63
2022-09-30T16:38:19.951Z,14.54
2022-09-30T16:43:22.044Z,14.53
2022-09-30T16:48:26.088Z,14.54
2022-09-30T16:53:27.888Z,14.58
2022-09-30T16:58:31.372Z,14.59
2022-09-30T17:03:33.982Z,14.32
2022-09-30T17:08:36.165Z,14.06
2022-09-30T17:13:38.022Z,14.04
2022-09-30T17:18:40.237Z,14.09
2022-09-30T17:23:41.916Z,13.88
2022-09-30T17:28:44.997Z,13.62
2022-09-30T17:33:46.692Z,13.48
2022-09-30T17:38:53.679Z,13.46
2022-09-30T17:43:55.775Z,13.31
2022-09-30T17:48:57.518Z,13.18
2022-09-30T17:54:01.789Z,13.05
2022-09-30T17:59:03.697Z,13.05
2022-09-30T18:04:05.378Z,13.14
2022-09-30T18:09:07.210Z,13.25
2022-09-30T18:14:10.888Z,13.32
2022-09-30T18:24:14.375Z,13.20
2022-09-30T18:29:16.144Z,13.01
2022-09-30T18:34:19.039Z,12.90
2022-09-30T18:39:21.449Z,12.90
2022-09-30T18:44:25.109Z,12.95
2022-09-30T18:49:26.829Z,13.08
2022-09-30T18:54:29.878Z,13.05
2022-09-30T18:59:31.604Z,13.03
2022-09-30T19:04:33.310Z,12.93
2022-09-30T19:09:35.063Z,12.78
2022-09-30T19:14:37.391Z,12.68
2022-09-30T19:19:41.192Z,12.74
2022-09-30T19:24:42.847Z,12.80
2022-09-30T19:29:44.651Z,12.97
2022-09-30T19:34:52.255Z,13.08
2022-09-30T19:40:00.304Z,13.15
2022-09-30T19:45:07.098Z,13.08
2022-09-30T19:50:09.159Z,12.89
2022-09-30T19:55:16.262Z,12.77
2022-09-30T20:00:18.826Z,12.69
2022-09-30T20:05:20.616Z,12.66
2022-09-30T20:10:23.997Z,12.62
2022-09-30T20:15:46.361Z,12.65
2022-09-30T20:20:48.370Z,12.73
2022-09-30T20:25:53.915Z,12.89
2022-09-30T20:30:55.745Z,12.98
2022-09-30T20:36:00.115Z,12.92
2022-09-30T20:41:03.560Z,12.72
2022-09-30T20:46:08.263Z,12.68
2022-09-30T20:51:12.297Z,12.78
2022-09-30T20:56:15.137Z,12.82
2022-09-30T21:01:19.254Z,12.82
2022-09-30T21:06:25.822Z,12.73
2022-09-30T21:11:27.473Z,12.77
2022-09-30T21:16:29.670Z,12.75
2022-09-30T21:21:31.795Z,12.65
2022-09-30T21:26:33.730Z,12.50
2022-09-30T21:31:37.945Z,12.46
2022-09-30T21:36:40.162Z,12.58
2022-09-30T21:41:42.746Z,12.69
2022-09-30T21:46:48.549Z,12.73
2022-09-30T21:51:52.907Z,12.62
2022-09-30T21:56:54.637Z,12.33
2022-09-30T22:01:59.444Z,12.31
2022-09-30T22:07:01.206Z,12.35
2022-09-30T22:12:09.037Z,12.33
2022-09-30T22:17:10.710Z,12.26
2022-09-30T22:22:12.385Z,12.24
2022-09-30T22:27:14.647Z,12.22
2022-09-30T22:32:16.425Z,12.06
2022-09-30T22:37:37.057Z,11.92
2022-09-30T22:42:39.217Z,12.03
2022-09-30T22:47:41.497Z,12.13
2022-09-30T22:52:43.126Z,12.06
2022-09-30T22:57:44.923Z,11.97
2022-09-30T23:02:48.291Z,12.04
2022-09-30T23:07:52.819Z,12.14
2022-09-30T23:12:54.475Z,12.23
2022-09-30T23:17:56.527Z,12.12
2022-09-30T23:22:58.235Z,12.05
2022-09-30T23:28:00.210Z,11.94
2022-09-30T23:33:01.931Z,11.83
2022-09-30T23:38:03.665Z,11.81
2022-09-30T23:43:05.309Z,11.81
2022-09-30T23:48:07.266Z,11.85
2022-09-30T23:53:09.321Z,11.84
2022-09-30T23:58:10.978Z,11.83
